createdAt,value
2022-08-03T00:04:22.004Z,410.66667
2022-08-03T00:09:36.051Z,417.84615
2022-08-03T00:14:37.547Z,410.66667
2022-08-03T00:19:39.101Z,461.64706
2022-08-03T00:24:40.806Z,461.64706
2022-08-03T00:30:00.127Z,436.8
2022-08-03T00:35:07.058Z,429.03937
2022-08-03T00:40:10.106Z,384
2022-08-03T00:45:11.641Z,444.81301
2022-08-03T00:50:13.566Z,374.76923
2022-08-03T00:55:15.139Z,407.15789
2022-08-03T01:00:16.827Z,396.94118
2022-08-03T01:05:18.706Z,407.15789
2022-08-03T01:10:20.329Z,349.26316
2022-08-03T01:15:21.857Z,344
2022-08-03T01:20:23.665Z,346.61438
2022-08-03T01:25:25.131Z,371.77778
2022-08-03T01:30:26.665Z,324.24691
2022-08-03T01:35:29.492Z,341.41935
2022-08-03T01:40:31.135Z,284.33149
2022-08-03T01:45:33.980Z,261.52577
2022-08-03T01:50:36.037Z,276.97297
2022-08-03T01:55:37.510Z,329
2022-08-03T02:00:39.074Z,326.6087
2022-08-03T02:05:40.771Z,344
2022-08-03T02:10:42.226Z,321.91411
2022-08-03T02:15:43.753Z,336.35669
2022-08-03T02:20:45.345Z,310.66667
2022-08-03T02:25:46.986Z,351.94702
2022-08-03T02:30:51.890Z,326.6087
2022-08-03T02:35:55.842Z,304.23392
2022-08-03T02:40:57.646Z,341.41935
2022-08-03T02:45:59.094Z,329
2022-08-03T02:51:00.653Z,312.86228
2022-08-03T02:56:02.215Z,329
2022-08-03T03:01:03.802Z,407.15789
2022-08-03T03:06:05.680Z,400.2963
2022-08-03T03:11:07.357Z,333.87342
2022-08-03T03:16:08.827Z,338.87179
2022-08-03T03:21:10.334Z,300.06936
2022-08-03T03:26:11.798Z,344
2022-08-03T03:31:13.266Z,306.35294
2022-08-03T03:36:14.954Z,269.92593
2022-08-03T03:41:16.397Z,259.89744
2022-08-03T03:46:17.855Z,284.33149
2022-08-03T03:51:19.298Z,310.66667
2022-08-03T03:56:20.944Z,284.33149
2022-08-03T04:01:22.429Z,306.35294
2022-08-03T04:06:24.131Z,268.21053
2022-08-03T04:11:30.224Z,241.58454
2022-08-03T04:16:33.409Z,226.56881
2022-08-03T04:21:35.026Z,217.77778
2022-08-03T04:26:36.650Z,194.4065
2022-08-03T04:31:38.212Z,200.66667
2022-08-03T04:36:39.877Z,221.47748
2022-08-03T04:42:07.011Z,177.33333
2022-08-03T04:47:10.022Z,153.52381
2022-08-03T04:52:11.691Z,185.56863
2022-08-03T04:57:22.539Z,200.66667
2022-08-03T05:02:25.076Z,137.71069
2022-08-03T05:07:35.575Z,152.10811
2022-08-03T05:12:37.937Z,189.41833
2022-08-03T05:17:39.357Z,169.64103
2022-08-03T05:22:40.975Z,166.38267
2022-08-03T05:27:42.440Z,147.30033
2022-08-03T05:32:44.075Z,167.18841
2022-08-03T05:37:54.386Z,143.35275
2022-08-03T05:42:56.336Z,167.18841
2022-08-03T05:47:57.878Z,151.40741
2022-08-03T05:52:59.620Z,140.17834
2022-08-03T05:58:01.078Z,138.32177
2022-08-03T06:03:02.596Z,126.78932
2022-08-03T06:08:04.630Z,124.64516
2022-08-03T06:13:06.076Z,109.5914
2022-08-03T06:18:07.512Z,108.26667
2022-08-03T06:23:16.025Z,108.26667
2022-08-03T06:28:51.814Z,103.17313
2022-08-03T06:34:34.303Z,100.743
2022-08-03T06:39:37.260Z,109.5914
2022-08-03T06:44:38.724Z,103.58549
2022-08-03T06:49:40.358Z,103.17313
2022-08-03T06:54:41.840Z,102.35476
2022-08-03T07:00:07.774Z,122.55072
2022-08-03T07:05:12.617Z,184.625
2022-08-03T07:10:14.412Z,150.02007
2022-08-03T07:15:20.527Z,163.21708
2022-08-03T07:20:55.103Z,172.14815
2022-08-03T07:25:56.828Z,164.78853
2022-08-03T07:30:58.277Z,174.71161
2022-08-03T07:35:59.814Z,160.14035
2022-08-03T07:41:01.565Z,216.56637
2022-08-03T07:46:05.382Z,231.85047
2022-08-03T07:51:06.781Z,271.65957
2022-08-03T07:56:11.258Z,263.17098
2022-08-03T08:01:15.203Z,286.22222
2022-08-03T08:06:16.784Z,280.61202
2022-08-03T08:11:19.016Z,258.28571
2022-08-03T08:16:20.459Z,276.97297
2022-08-03T08:21:22.044Z,252
2022-08-03T08:26:23.634Z,250.46766
2022-08-03T08:31:25.188Z,286.22222
2022-08-03T08:36:26.606Z,273.41176
2022-08-03T08:41:32.346Z,234.56604
2022-08-03T08:46:34.042Z,255.11111
2022-08-03T08:51:54.550Z,317.33333
2022-08-03T08:57:02.422Z,300.06936
2022-08-03T09:02:03.875Z,256.69036
2022-08-03T09:07:19.615Z,338.87179
2022-08-03T09:12:41.143Z,338.87179
2022-08-03T09:17:46.510Z,315.08434
2022-08-03T09:22:52.213Z,310.66667
2022-08-03T09:27:53.870Z,220.23318
2022-08-03T09:32:55.298Z,263.17098
2022-08-03T09:38:12.601Z,278.78261
2022-08-03T09:43:16.042Z,255.11111
2022-08-03T09:48:17.523Z,244.4878
2022-08-03T09:53:19.301Z,245.96078
2022-08-03T09:58:21.144Z,268.21053
2022-08-03T10:03:22.781Z,298.02299
2022-08-03T10:08:24.339Z,300.06936
2022-08-03T10:13:26.288Z,349.26316
2022-08-03T10:18:27.844Z,280.61202
2022-08-03T10:23:33.419Z,282.46154
2022-08-03T10:28:35.624Z,336.35669
2022-08-03T10:33:50.028Z,365.91781
2022-08-03T10:38:53.850Z,380.87943
2022-08-03T10:43:55.611Z,346.61438
2022-08-03T10:48:57.186Z,321.91411
2022-08-03T10:53:58.775Z,371.77778
2022-08-03T10:59:05.334Z,368.82759
2022-08-03T11:04:13.985Z,346.61438
2022-08-03T11:09:18.071Z,380.87943
2022-08-03T11:14:19.737Z,351.94702
2022-08-03T11:19:21.196Z,351.94702
2022-08-03T11:24:22.850Z,365.91781
2022-08-03T11:29:24.407Z,338.87179
2022-08-03T11:34:25.941Z,331.42138
2022-08-03T11:39:27.415Z,317.33333
2022-08-03T11:44:29.050Z,312.86228
2022-08-03T11:49:30.614Z,331.42138
2022-08-03T11:54:32.214Z,292.0226
2022-08-03T11:59:33.797Z,306.35294
2022-08-03T12:04:35.376Z,288.13408
2022-08-03T12:09:36.811Z,304.23392
2022-08-03T12:14:48.982Z,333.87342
2022-08-03T12:19:53.023Z,302.13953
2022-08-03T12:24:54.495Z,336.35669
2022-08-03T12:29:58.349Z,377.80282
2022-08-03T12:35:00.878Z,338.87179
2022-08-03T12:40:07.875Z,324.24691
2022-08-03T12:45:11.984Z,363.04762
2022-08-03T12:50:13.407Z,324.24691
2022-08-03T12:55:15.102Z,315.08434
2022-08-03T13:00:21.644Z,336.35669
2022-08-03T13:05:30.214Z,333.87342
2022-08-03T13:10:31.865Z,317.33333
2022-08-03T13:15:38.541Z,256.69036
2022-08-03T13:20:49.061Z,240.15385
2022-08-03T13:25:55.835Z,240.15385
2022-08-03T13:30:57.653Z,243.02913
2022-08-03T13:35:59.202Z,188.44444
2022-08-03T13:41:00.728Z,248.9505
2022-08-03T13:46:07.091Z,286.22222
2022-08-03T13:51:12.016Z,252
2022-08-03T13:56:24.217Z,245.96078
2022-08-03T14:01:54.075Z,179.1145
2022-08-03T14:06:56.573Z,233.20188
2022-08-03T14:12:07.516Z,269.92593
2022-08-03T14:17:11.002Z,226.56881
2022-08-03T14:22:13.697Z,207.24786
2022-08-03T14:27:15.156Z,199.60166
2022-08-03T14:32:16.907Z,191.38956
2022-08-03T14:37:18.876Z,212.99563
2022-08-03T14:42:20.562Z,200.66667
2022-08-03T14:47:23.133Z,217.77778
2022-08-03T14:52:24.563Z,211.82609
2022-08-03T14:57:26.040Z,215.36564
2022-08-03T15:02:27.634Z,205.01695
2022-08-03T15:07:29.083Z,184.625
2022-08-03T15:12:30.560Z,181.83784
2022-08-03T15:17:32.932Z,180.92308
2022-08-03T15:22:35.178Z,166.38267
2022-08-03T15:27:36.930Z,144
2022-08-03T15:33:06.889Z,140.80511
2022-08-03T15:38:09.653Z,119.49858
2022-08-03T15:43:11.450Z,117.52113
2022-08-03T15:48:13.127Z,112.76712
2022-08-03T15:53:14.779Z,96.47525
2022-08-03T15:59:04.359Z,97.23383
2022-08-03T16:04:13.276Z,106.53298
2022-08-03T16:09:24.153Z,102.76289
2022-08-03T16:14:52.421Z,101.54476
2022-08-03T16:19:55.403Z,98
2022-08-03T16:24:56.912Z,104
2022-08-03T16:29:58.748Z,104
2022-08-03T16:35:00.292Z,103.17313
2022-08-03T16:40:01.816Z,100.34518
2022-08-03T16:45:03.298Z,93.87835
2022-08-03T16:50:11.919Z,92.07692
2022-08-03T16:55:42.971Z,90.31829
2022-08-03T17:00:50.987Z,88.2623
2022-08-03T17:05:52.900Z,86.59259
2022-08-03T17:10:54.498Z,72.06653
2022-08-03T17:15:57.710Z,82.73874
2022-08-03T17:21:01.684Z,81.80761
2022-08-03T17:26:05.954Z,79.38462
2022-08-03T17:31:23.411Z,79.98234
2022-08-03T17:37:02.154Z,79.68282
2022-08-03T17:42:05.160Z,80.88889
2022-08-03T17:47:41.847Z,84.63927
2022-08-03T17:52:48.219Z,85.93548
2022-08-03T17:58:02.050Z,85.6092
2022-08-03T18:03:04.611Z,86.26328
2022-08-03T18:08:11.180Z,85.93548
2022-08-03T18:13:13.347Z,86.92343
2022-08-03T18:18:15.381Z,72.06653
2022-08-03T18:23:24.832Z,81.19376
2022-08-03T18:28:38.506Z,82.11659
2022-08-03T18:34:16.629Z,84.31891
2022-08-03T18:39:33.508Z,85.93548
2022-08-03T18:44:54.287Z,84.63927
2022-08-03T18:49:58.613Z,83.36652
2022-08-03T18:55:04.544Z,78.79212
2022-08-03T19:00:15.970Z,74.50847
2022-08-03T19:05:17.474Z,74.50847
2022-08-03T19:10:19.393Z,77.33333
2022-08-03T19:15:36.328Z,82.73874
2022-08-03T19:20:38.716Z,84.31891
2022-08-03T19:25:40.603Z,85.6092
2022-08-03T19:30:53.290Z,85.6092
2022-08-03T19:35:56.907Z,86.59259
2022-08-03T19:40:59.683Z,87.92523
2022-08-03T19:46:06.039Z,89.97156
2022-08-03T19:51:12.072Z,88.94118
2022-08-03T19:56:14.559Z,88.2623
2022-08-03T20:01:19.407Z,89.62648
2022-08-03T20:06:23.299Z,92.79227
2022-08-03T20:11:28.887Z,94.2439
2022-08-03T20:16:32.324Z,93.87835
2022-08-03T20:21:33.942Z,94.98039
2022-08-03T20:26:40.209Z,93.51456
2022-08-03T20:31:45.050Z,92.07692
2022-08-03T20:36:46.569Z,90.31829
2022-08-03T20:41:48.163Z,90.31829
2022-08-03T20:46:53.168Z,87.58974
2022-08-03T20:52:02.709Z,84
2022-08-03T20:57:06.936Z,81.5
2022-08-03T21:03:14.707Z,77.91304
2022-08-03T21:08:17.345Z,79.08772
2022-08-03T21:18:21.412Z,79.68282
2022-08-03T21:23:40.323Z,79.98234
2022-08-03T21:28:51.290Z,78.49782
2022-08-03T21:33:53.843Z,77.62256
2022-08-03T21:38:55.791Z,76.75862
2022-08-03T21:43:58.224Z,77.33333
2022-08-03T21:49:51.881Z,76.47312
2022-08-03T21:55:18.650Z,74.50847
2022-08-03T22:00:23.243Z,74.50847
2022-08-03T22:05:28.841Z,74.23256
2022-08-03T22:10:30.699Z,76.75862
2022-08-03T22:15:32.163Z,77.04536
2022-08-03T22:20:33.699Z,76.75862
2022-08-03T22:25:35.155Z,78.49782
2022-08-03T22:30:37.286Z,81.19376
2022-08-03T22:35:47.247Z,82.11659
2022-08-03T22:40:49.579Z,80.88889
2022-08-03T22:46:09.248Z,82.42697
2022-08-03T22:51:14.109Z,87.92523
2022-08-03T22:56:15.686Z,89.62648
2022-08-03T23:01:17.890Z,89.62648
2022-08-03T23:06:19.640Z,90.31829
2022-08-03T23:11:21.158Z,91.01671
2022-08-03T23:16:28.727Z,92.43373
2022-08-03T23:22:00.259Z,93.87835
2022-08-03T23:27:04.437Z,99.55556
2022-08-03T23:32:06.057Z,99.55556
2022-08-03T23:37:07.510Z,104
2022-08-03T23:42:09.129Z,101.14286
2022-08-03T23:47:10.612Z,101.14286
2022-08-03T23:52:12.147Z,98
2022-08-03T23:57:13.671Z,96.47525
